aviador You're here:

KPQL Decoded Metar

PASCAGOULA in MS, USA
Report Time2017-08-18 00:53:00
UTC Time2017-08-18 01:05:23
Flight Rules vfr VFR
WindCalm
Visibility9999 m
Phenomena:N/A
Clouds:N/A
Expected CloudBase > 1,200 ft AGL from Temp-Dew spread
CeilingNone
Temp29°C (ISA +14)
Dew Point26°C (84% RH)
Heat Index35.6°C
QNH1016 hPa
Density Alt1,972 ft
Elevation20 ft
Report Wrong Elevation
Raw Report
KPQL 180053Z 00000KT 10SM CLR 29/26 A3001 RMK AO2 SLP162
T02890256=

Extra information for KPQL:More info

Metar Taf Metar & Taf Last 4 Metars F.Rules Stats Wind Profile Meteogram Temp Stats Airport Information Weather charts Add Link Nearby VenuesMetar ALERT Operation Metar Decoded Social comments

AIRNAV info for KPQL